Briefing drone pour Sorbiers

Rechercher une autre localisation

Conditions de vol :


Nous sommes le : Vendredi 17 septembre 2021
Il est 20:09 UTC (22:09 LT)

Lever de soleil : 04:56 UTC (06:56 LT)
Coucher de soleil : 18:16 UTC (20:16 LT)

Météo

L'essentiel des conditions de vol

VIGILANCE MÉTÉO FRANCE - Loire (42)
Pas de vigilances particulieres
METAR de LFMH
LFMH 171930Z AUTO 36003KT 320V040 9999 OVC036 20/15 Q1015

Date d'émission: 17/09/2021
Heure d'émission: 19:30 UTC
Vent: 360° (variable du 320° au 040°) pour 3 KT (6 km/h)
Visibilité horizontale: > 10 km
Plafond :
- Couvert à 3600ft (1097m)
Température: 20 °C
Point de rosée: 15 °C
Humidité: 73%
Pression (QNH): 1015 hPa
TAF de LFMH
LFMH 161901Z 1619/1712 CNL

Conditions prévues :

Heure d'émission : Bulletin éffectué le 16 à 19:00 UTC
Prévision : Valide du 16 a 19:00 UTC au 17 a 12:00 UTC
Nuages : à 0ft (0 m)
WEBCAM POUR SORBIERS

Réglementation

Voler en sécurité

CARTES AERONAUTIQUE 1/500.000
CARTES VAC (LFMH)
SUP AIP




Chargement des AIP...
NOTAM (SORBIERS + Terrain à proximité / FIR )




Chargement des NOTAMS...
CONTACT PREFECTURE 42


Avertissement : Les données mises à disposition sont indicatives. Oxygène Drone ne pourra être tenu responsable de dégâts causés aux biens et aux personnes.